sensor_id;sensor_type;location;lat;lon;timestamp;pressure;altitude;pressure_sealevel;temperature;humidity
77723;BME280;67811;42.656;23.394;2023-04-01T00:02:09;94209.84;;;9.02;61.51
77723;BME280;67811;42.656;23.394;2023-04-01T00:04:41;94210.22;;;8.99;62.00
77723;BME280;67811;42.656;23.394;2023-04-01T00:07:12;94212.00;;;8.85;62.27
77723;BME280;67811;42.656;23.394;2023-04-01T00:09:42;94215.56;;;8.71;62.97
77723;BME280;67811;42.656;23.394;2023-04-01T00:12:13;94232.63;;;8.40;64.17
77723;BME280;67811;42.656;23.394;2023-04-01T00:14:43;94215.16;;;8.39;64.32
77723;BME280;67811;42.656;23.394;2023-04-01T00:17:14;94226.34;;;8.41;64.24
77723;BME280;67811;42.656;23.394;2023-04-01T00:19:46;94214.06;;;8.34;64.75
77723;BME280;67811;42.656;23.394;2023-04-01T00:22:16;94216.53;;;8.35;65.04
77723;BME280;67811;42.656;23.394;2023-04-01T00:24:47;94220.06;;;8.42;65.06
77723;BME280;67811;42.656;23.394;2023-04-01T00:27:18;94237.16;;;8.47;64.63
77723;BME280;67811;42.656;23.394;2023-04-01T00:29:48;94234.84;;;8.37;65.16
77723;BME280;67811;42.656;23.394;2023-04-01T00:32:19;94217.06;;;8.24;65.26
77723;BME280;67811;42.656;23.394;2023-04-01T00:34:52;94222.13;;;8.26;65.48
77723;BME280;67811;42.656;23.394;2023-04-01T00:37:22;94220.16;;;8.34;65.07
77723;BME280;67811;42.656;23.394;2023-04-01T00:39:54;94206.72;;;8.29;65.31
77723;BME280;67811;42.656;23.394;2023-04-01T00:42:25;94214.97;;;8.41;64.84
77723;BME280;67811;42.656;23.394;2023-04-01T00:44:55;94207.69;;;8.22;65.35
77723;BME280;67811;42.656;23.394;2023-04-01T00:47:26;94201.06;;;8.04;66.52
77723;BME280;67811;42.656;23.394;2023-04-01T00:49:59;94198.03;;;8.07;66.67
77723;BME280;67811;42.656;23.394;2023-04-01T00:52:29;94184.47;;;8.10;66.59
77723;BME280;67811;42.656;23.394;2023-04-01T00:55:02;94187.66;;;8.06;67.94
77723;BME280;67811;42.656;23.394;2023-04-01T00:57:36;94183.03;;;8.08;67.43
77723;BME280;67811;42.656;23.394;2023-04-01T01:00:10;94178.13;;;8.05;67.67
77723;BME280;67811;42.656;23.394;2023-04-01T01:02:43;94169.97;;;8.00;67.08
77723;BME280;67811;42.656;23.394;2023-04-01T01:05:16;94169.97;;;8.00;66.99
77723;BME280;67811;42.656;23.394;2023-04-01T01:07:52;94167.94;;;8.02;65.94
77723;BME280;67811;42.656;23.394;2023-04-01T01:10:31;94165.22;;;8.16;64.15
77723;BME280;67811;42.656;23.394;2023-04-01T01:13:10;94159.91;;;8.38;62.90
77723;BME280;67811;42.656;23.394;2023-04-01T01:15:44;94149.16;;;8.39;63.13
77723;BME280;67811;42.656;23.394;2023-04-01T01:18:19;94147.53;;;8.38;63.29
77723;BME280;67811;42.656;23.394;2023-04-01T01:24:28;94136.38;;;8.36;63.68
77723;BME280;67811;42.656;23.394;2023-04-01T01:27:06;94142.09;;;8.47;63.82
77723;BME280;67811;42.656;23.394;2023-04-01T01:30:00;94139.69;;;8.52;62.51
77723;BME280;67811;42.656;23.394;2023-04-01T01:35:42;94127.00;;;8.75;61.63
77723;BME280;67811;42.656;23.394;2023-04-01T01:38:17;94116.84;;;8.79;61.22
77723;BME280;67811;42.656;23.394;2023-04-01T01:40:51;94114.84;;;8.81;60.96
77723;BME280;67811;42.656;23.394;2023-04-01T01:43:24;94108.75;;;8.80;60.64
77723;BME280;67811;42.656;23.394;2023-04-01T01:45:59;94104.75;;;9.04;59.91
77723;BME280;67811;42.656;23.394;2023-04-01T01:48:33;94111.06;;;9.10;60.00
77723;BME280;67811;42.656;23.394;2023-04-01T01:51:06;94109.44;;;9.02;60.60
77723;BME280;67811;42.656;23.394;2023-04-01T01:53:37;94111.28;;;9.08;58.66
77723;BME280;67811;42.656;23.394;2023-04-01T01:56:10;94110.31;;;9.29;57.74
77723;BME280;67811;42.656;23.394;2023-04-01T01:58:43;94099.91;;;9.21;58.11
77723;BME280;67811;42.656;23.394;2023-04-01T02:01:17;94093.59;;;9.15;57.93
77723;BME280;67811;42.656;23.394;2023-04-01T02:03:49;94085.88;;;9.34;56.73
77723;BME280;67811;42.656;23.394;2023-04-01T02:06:25;94088.94;;;9.31;57.45
77723;BME280;67811;42.656;23.394;2023-04-01T02:08:59;94095.88;;;9.38;57.36
77723;BME280;67811;42.656;23.394;2023-04-01T02:11:33;94093.44;;;9.37;58.75
77723;BME280;67811;42.656;23.394;2023-04-01T02:14:09;94090.00;;;9.56;56.11
77723;BME280;67811;42.656;23.394;2023-04-01T02:16:44;94081.84;;;9.71;55.99
77723;BME280;67811;42.656;23.394;2023-04-01T02:19:17;94079.41;;;9.69;56.68
77723;BME280;67811;42.656;23.394;2023-04-01T02:21:51;94073.91;;;9.64;56.97
77723;BME280;67811;42.656;23.394;2023-04-01T02:24:25;94082.06;;;9.63;57.79
77723;BME280;67811;42.656;23.394;2023-04-01T02:26:56;94071.50;;;9.63;57.81
77723;BME280;67811;42.656;23.394;2023-04-01T02:29:27;94061.50;;;9.65;55.86
77723;BME280;67811;42.656;23.394;2023-04-01T02:31:58;94064.97;;;9.79;55.12
77723;BME280;67811;42.656;23.394;2023-04-01T02:34:29;94060.47;;;9.92;54.55
77723;BME280;67811;42.656;23.394;2023-04-01T02:37:01;94057.81;;;9.99;54.06
77723;BME280;67811;42.656;23.394;2023-04-01T02:39:32;94065.75;;;9.99;53.88
77723;BME280;67811;42.656;23.394;2023-04-01T02:42:02;94063.50;;;10.02;54.31
77723;BME280;67811;42.656;23.394;2023-04-01T02:44:33;94069.19;;;9.99;55.09
77723;BME280;67811;42.656;23.394;2023-04-01T02:47:03;94069.63;;;9.96;55.99
77723;BME280;67811;42.656;23.394;2023-04-01T02:49:34;94085.31;;;9.85;57.13
77723;BME280;67811;42.656;23.394;2023-04-01T02:52:06;94091.00;;;9.75;58.95
77723;BME280;67811;42.656;23.394;2023-04-01T02:54:36;94082.47;;;9.53;60.34
77723;BME280;67811;42.656;23.394;2023-04-01T02:57:07;94094.28;;;9.50;60.77
77723;BME280;67811;42.656;23.394;2023-04-01T02:59:38;94104.00;;;9.43;60.91
77723;BME280;67811;42.656;23.394;2023-04-01T03:02:08;94099.09;;;9.34;61.69
77723;BME280;67811;42.656;23.394;2023-04-01T03:04:39;94101.94;;;9.26;61.81
77723;BME280;67811;42.656;23.394;2023-04-01T03:07:11;94109.22;;;9.10;62.10
77723;BME280;67811;42.656;23.394;2023-04-01T03:09:42;94111.03;;;8.96;62.00
77723;BME280;67811;42.656;23.394;2023-04-01T03:12:12;94112.69;;;9.04;61.71
77723;BME280;67811;42.656;23.394;2023-04-01T03:14:43;94123.03;;;8.99;62.67
77723;BME280;67811;42.656;23.394;2023-04-01T03:17:13;94114.00;;;8.74;62.40
77723;BME280;67811;42.656;23.394;2023-04-01T03:19:44;94125.31;;;8.61;62.96
77723;BME280;67811;42.656;23.394;2023-04-01T03:22:16;94123.31;;;8.63;63.64
77723;BME280;67811;42.656;23.394;2023-04-01T03:24:46;94126.53;;;8.58;63.29
77723;BME280;67811;42.656;23.394;2023-04-01T03:27:17;94124.34;;;8.68;63.33
77723;BME280;67811;42.656;23.394;2023-04-01T03:29:48;94128.41;;;8.71;63.42
77723;BME280;67811;42.656;23.394;2023-04-01T03:32:18;94132.09;;;8.77;63.10
77723;BME280;67811;42.656;23.394;2023-04-01T03:34:49;94130.28;;;8.84;62.98
77723;BME280;67811;42.656;23.394;2023-04-01T03:37:22;94116.25;;;8.83;62.62
77723;BME280;67811;42.656;23.394;2023-04-01T03:39:52;94117.72;;;8.86;64.54
77723;BME280;67811;42.656;23.394;2023-04-01T03:42:23;94113.84;;;8.88;65.55
77723;BME280;67811;42.656;23.394;2023-04-01T03:44:53;94113.84;;;8.88;64.62
77723;BME280;67811;42.656;23.394;2023-04-01T03:47:24;94102.69;;;8.93;65.82
77723;BME280;67811;42.656;23.394;2023-04-01T03:49:55;94091.91;;;8.88;64.64
77723;BME280;67811;42.656;23.394;2023-04-01T03:52:27;94091.06;;;8.81;63.87
77723;BME280;67811;42.656;23.394;2023-04-01T03:54:57;94076.25;;;8.93;63.84
77723;BME280;67811;42.656;23.394;2023-04-01T03:57:30;94075.06;;;9.02;62.87
77723;BME280;67811;42.656;23.394;2023-04-01T04:00:00;94067.75;;;9.04;62.71
77723;BME280;67811;42.656;23.394;2023-04-01T04:02:31;94051.09;;;9.04;62.15
77723;BME280;67811;42.656;23.394;2023-04-01T04:05:02;94025.09;;;9.07;62.22
77723;BME280;67811;42.656;23.394;2023-04-01T04:07:35;94037.06;;;9.10;61.12
77723;BME280;67811;42.656;23.394;2023-04-01T04:10:07;94021.03;;;9.24;60.70
77723;BME280;67811;42.656;23.394;2023-04-01T04:12:37;94016.75;;;9.30;60.65
77723;BME280;67811;42.656;23.394;2023-04-01T04:15:09;94018.38;;;9.31;60.32
77723;BME280;67811;42.656;23.394;2023-04-01T04:17:39;94010.06;;;9.34;61.09
77723;BME280;67811;42.656;23.394;2023-04-01T04:20:10;94001.72;;;9.37;60.56
77723;BME280;67811;42.656;23.394;2023-04-01T04:22:42;94003.13;;;9.33;61.27
77723;BME280;67811;42.656;23.394;2023-04-01T04:25:12;93989.50;;;9.36;61.08
77723;BME280;67811;42.656;23.394;2023-04-01T04:27:43;93971.00;;;9.43;60.36
77723;BME280;67811;42.656;23.394;2023-04-01T04:30:14;93997.84;;;9.33;60.56
77723;BME280;67811;42.656;23.394;2023-04-01T04:32:44;93992.56;;;9.27;61.03
77723;BME280;67811;42.656;23.394;2023-04-01T04:35:15;93976.91;;;9.32;61.55
77723;BME280;67811;42.656;23.394;2023-04-01T04:37:47;93979.75;;;9.30;61.38
77723;BME280;67811;42.656;23.394;2023-04-01T04:40:17;93966.75;;;9.29;60.81
77723;BME280;67811;42.656;23.394;2023-04-01T04:42:48;93957.56;;;9.38;60.23
77723;BME280;67811;42.656;23.394;2023-04-01T04:45:18;93954.13;;;9.37;59.23
77723;BME280;67811;42.656;23.394;2023-04-01T04:47:49;93952.09;;;9.33;60.07
77723;BME280;67811;42.656;23.394;2023-04-01T04:50:20;93932.75;;;9.39;59.48
77723;BME280;67811;42.656;23.394;2023-04-01T04:52:52;93934.78;;;9.43;59.36
77723;BME280;67811;42.656;23.394;2023-04-01T04:55:22;93931.75;;;9.46;59.46
77723;BME280;67811;42.656;23.394;2023-04-01T04:57:53;93933.38;;;9.47;59.62
77723;BME280;67811;42.656;23.394;2023-04-01T05:00:23;93915.47;;;9.43;60.46
77723;BME280;67811;42.656;23.394;2023-04-01T05:02:54;93925.84;;;9.38;60.90
77723;BME280;67811;42.656;23.394;2023-04-01T05:05:24;93929.13;;;9.40;60.32
77723;BME280;67811;42.656;23.394;2023-04-01T05:07:56;93925.03;;;9.44;59.69
77723;BME280;67811;42.656;23.394;2023-04-01T05:10:27;93927.84;;;9.56;60.58
77723;BME280;67811;42.656;23.394;2023-04-01T05:12:58;93914.00;;;9.60;59.17
77723;BME280;67811;42.656;23.394;2023-04-01T05:15:28;93919.53;;;9.52;58.83
77723;BME280;67811;42.656;23.394;2023-04-01T05:17:59;93906.31;;;9.45;59.39
77723;BME280;67811;42.656;23.394;2023-04-01T05:20:30;93917.53;;;9.41;60.20
77723;BME280;67811;42.656;23.394;2023-04-01T05:23:03;93914.91;;;9.34;60.77
77723;BME280;67811;42.656;23.394;2023-04-01T05:25:36;93908.78;;;9.27;60.89
77723;BME280;67811;42.656;23.394;2023-04-01T05:28:07;93900.47;;;9.23;60.95
77723;BME280;67811;42.656;23.394;2023-04-01T05:30:39;93892.72;;;9.22;61.28
77723;BME280;67811;42.656;23.394;2023-04-01T05:33:10;93899.44;;;9.24;61.09
77723;BME280;67811;42.656;23.394;2023-04-01T05:35:41;93906.34;;;9.32;60.65
77723;BME280;67811;42.656;23.394;2023-04-01T05:38:13;93900.63;;;9.42;60.49
77723;BME280;67811;42.656;23.394;2023-04-01T05:40:44;93888.59;;;9.53;60.41
77723;BME280;67811;42.656;23.394;2023-04-01T05:43:14;93898.13;;;9.60;59.59
77723;BME280;67811;42.656;23.394;2023-04-01T05:45:45;93887.94;;;9.70;59.40
77723;BME280;67811;42.656;23.394;2023-04-01T05:48:15;93901.94;;;9.84;58.58
77723;BME280;67811;42.656;23.394;2023-04-01T05:50:46;93901.50;;;9.87;58.91
77723;BME280;67811;42.656;23.394;2023-04-01T05:53:18;93905.97;;;9.93;57.63
77723;BME280;67811;42.656;23.394;2023-04-01T05:55:48;93893.53;;;10.00;57.07
77723;BME280;67811;42.656;23.394;2023-04-01T05:58:19;93870.63;;;10.19;57.01
77723;BME280;67811;42.656;23.394;2023-04-01T06:00:49;93885.31;;;10.85;55.58
77723;BME280;67811;42.656;23.394;2023-04-01T06:03:20;93877.81;;;11.50;53.74
77723;BME280;67811;42.656;23.394;2023-04-01T06:05:50;93862.50;;;12.37;52.03
77723;BME280;67811;42.656;23.394;2023-04-01T06:08:24;93864.16;;;13.15;48.52
77723;BME280;67811;42.656;23.394;2023-04-01T06:11:04;93875.53;;;13.34;47.50
77723;BME280;67811;42.656;23.394;2023-04-01T06:13:49;93883.88;;;13.26;47.91
77723;BME280;67811;42.656;23.394;2023-04-01T06:16:27;93882.09;;;13.08;47.65
77723;BME280;67811;42.656;23.394;2023-04-01T06:19:08;93871.97;;;12.75;48.99
77723;BME280;67811;42.656;23.394;2023-04-01T06:28:00;93871.63;;;12.42;50.29
77723;BME280;67811;42.656;23.394;2023-04-01T06:30:40;93870.38;;;12.44;50.18
77723;BME280;67811;42.656;23.394;2023-04-01T06:33:23;93875.69;;;12.44;50.87
77723;BME280;67811;42.656;23.394;2023-04-01T06:36:30;93858.75;;;12.57;50.86
77723;BME280;67811;42.656;23.394;2023-04-01T06:39:17;93854.22;;;12.57;50.76
77723;BME280;67811;42.656;23.394;2023-04-01T06:42:08;93859.31;;;12.47;51.37
77723;BME280;67811;42.656;23.394;2023-04-01T06:44:51;93860.41;;;12.39;51.45
77723;BME280;67811;42.656;23.394;2023-04-01T06:47:34;93850.44;;;12.23;52.06
77723;BME280;67811;42.656;23.394;2023-04-01T06:50:19;93839.28;;;11.84;53.06
77723;BME280;67811;42.656;23.394;2023-04-01T06:52:58;93854.84;;;11.99;53.41
77723;BME280;67811;42.656;23.394;2023-04-01T06:55:34;93846.41;;;12.02;53.90
77723;BME280;67811;42.656;23.394;2023-04-01T06:58:13;93843.31;;;12.05;53.90
77723;BME280;67811;42.656;23.394;2023-04-01T07:00:49;93826.84;;;12.15;54.08
77723;BME280;67811;42.656;23.394;2023-04-01T07:03:25;93809.47;;;12.01;54.68
77723;BME280;67811;42.656;23.394;2023-04-01T07:05:59;93812.63;;;12.09;54.47
77723;BME280;67811;42.656;23.394;2023-04-01T07:08:35;93805.47;;;12.10;55.08
77723;BME280;67811;42.656;23.394;2023-04-01T07:11:09;93822.66;;;12.07;55.67
77723;BME280;67811;42.656;23.394;2023-04-01T07:13:46;93822.34;;;12.16;55.37
77723;BME280;67811;42.656;23.394;2023-04-01T07:16:21;93826.88;;;12.27;55.03
77723;BME280;67811;42.656;23.394;2023-04-01T07:18:57;93805.13;;;12.18;55.52
77723;BME280;67811;42.656;23.394;2023-04-01T07:21:33;93803.13;;;12.32;55.81
77723;BME280;67811;42.656;23.394;2023-04-01T07:24:09;93788.81;;;12.45;55.43
77723;BME280;67811;42.656;23.394;2023-04-01T07:26:42;93782.47;;;12.46;55.12
77723;BME280;67811;42.656;23.394;2023-04-01T07:29:14;93802.72;;;12.58;54.79
77723;BME280;67811;42.656;23.394;2023-04-01T07:32:06;93797.63;;;12.57;54.76
77723;BME280;67811;42.656;23.394;2023-04-01T07:34:46;93782.03;;;12.60;54.02
77723;BME280;67811;42.656;23.394;2023-04-01T07:37:24;93786.13;;;12.86;52.95
77723;BME280;67811;42.656;23.394;2023-04-01T07:40:08;93796.28;;;13.01;52.18
77723;BME280;67811;42.656;23.394;2023-04-01T07:42:56;93787.28;;;13.14;51.42
77723;BME280;67811;42.656;23.394;2023-04-01T07:45:31;93790.41;;;13.23;51.44
77723;BME280;67811;42.656;23.394;2023-04-01T07:48:17;93789.16;;;13.25;50.68
77723;BME280;67811;42.656;23.394;2023-04-01T07:50:55;93782.06;;;13.19;51.74
77723;BME280;67811;42.656;23.394;2023-04-01T07:53:33;93784.38;;;13.15;52.02
77723;BME280;67811;42.656;23.394;2023-04-01T07:56:09;93780.66;;;13.16;52.41
77723;BME280;67811;42.656;23.394;2023-04-01T07:58:51;93783.34;;;13.16;50.68
77723;BME280;67811;42.656;23.394;2023-04-01T08:01:29;93785.19;;;13.16;50.90
77723;BME280;67811;42.656;23.394;2023-04-01T08:04:18;93784.13;;;13.17;50.65
77723;BME280;67811;42.656;23.394;2023-04-01T08:06:58;93785.75;;;13.18;50.53
77723;BME280;67811;42.656;23.394;2023-04-01T08:09:36;93789.00;;;13.20;50.45
77723;BME280;67811;42.656;23.394;2023-04-01T08:12:20;93781.84;;;13.21;50.74
77723;BME280;67811;42.656;23.394;2023-04-01T08:14:58;93766.31;;;13.17;50.70
77723;BME280;67811;42.656;23.394;2023-04-01T08:17:39;93771.56;;;13.24;50.43
77723;BME280;67811;42.656;23.394;2023-04-01T08:20:25;93766.81;;;13.26;50.35
77723;BME280;67811;42.656;23.394;2023-04-01T08:22:59;93764.03;;;13.33;50.18
77723;BME280;67811;42.656;23.394;2023-04-01T08:25:30;93758.38;;;13.41;49.81
77723;BME280;67811;42.656;23.394;2023-04-01T08:28:09;93744.69;;;13.49;50.28
77723;BME280;67811;42.656;23.394;2023-04-01T08:30:43;93727.53;;;13.57;49.59
77723;BME280;67811;42.656;23.394;2023-04-01T08:33:19;93732.72;;;13.63;49.44
77723;BME280;67811;42.656;23.394;2023-04-01T08:35:55;93731.53;;;13.71;49.40
77723;BME280;67811;42.656;23.394;2023-04-01T08:38:30;93718.31;;;13.76;48.81
77723;BME280;67811;42.656;23.394;2023-04-01T08:41:32;93717.13;;;13.84;48.93
77723;BME280;67811;42.656;23.394;2023-04-01T08:44:36;93704.34;;;13.97;48.79
77723;BME280;67811;42.656;23.394;2023-04-01T08:47:37;93681.63;;;14.07;48.05
77723;BME280;67811;42.656;23.394;2023-04-01T08:50:36;93669.28;;;14.17;46.80
77723;BME280;67811;42.656;23.394;2023-04-01T08:53:15;93681.47;;;14.30;46.08
77723;BME280;67811;42.656;23.394;2023-04-01T08:55:51;93678.88;;;14.35;46.12
77723;BME280;67811;42.656;23.394;2023-04-01T09:01:36;93680.94;;;14.62;45.34
77723;BME280;67811;42.656;23.394;2023-04-01T09:04:25;93682.69;;;14.73;45.21
77723;BME280;67811;42.656;23.394;2023-04-01T09:07:06;93691.88;;;14.82;44.57
77723;BME280;67811;42.656;23.394;2023-04-01T09:09:56;93694.88;;;14.86;44.71
77723;BME280;67811;42.656;23.394;2023-04-01T09:12:43;93693.00;;;14.86;44.93
77723;BME280;67811;42.656;23.394;2023-04-01T09:22:01;93686.34;;;15.06;43.63
77723;BME280;67811;42.656;23.394;2023-04-01T09:24:41;93684.84;;;15.15;43.48
77723;BME280;67811;42.656;23.394;2023-04-01T09:27:23;93680.91;;;15.17;42.79
77723;BME280;67811;42.656;23.394;2023-04-01T09:30:33;93676.72;;;15.26;43.27
77723;BME280;67811;42.656;23.394;2023-04-01T09:33:39;93666.44;;;15.35;43.42
77723;BME280;67811;42.656;23.394;2023-04-01T09:36:21;93662.50;;;15.43;43.23
77723;BME280;67811;42.656;23.394;2023-04-01T09:38:59;93659.50;;;15.34;42.75
77723;BME280;67811;42.656;23.394;2023-04-01T09:41:40;93646.28;;;15.22;41.97
77723;BME280;67811;42.656;23.394;2023-04-01T09:44:22;93652.97;;;15.25;42.17
77723;BME280;67811;42.656;23.394;2023-04-01T09:47:04;93651.28;;;15.19;42.28
77723;BME280;67811;42.656;23.394;2023-04-01T09:49:55;93641.41;;;15.19;42.66
77723;BME280;67811;42.656;23.394;2023-04-01T09:52:35;93637.22;;;15.23;42.71
77723;BME280;67811;42.656;23.394;2023-04-01T09:55:24;93633.97;;;15.21;42.49
77723;BME280;67811;42.656;23.394;2023-04-01T09:58:32;93627.13;;;15.31;42.51
77723;BME280;67811;42.656;23.394;2023-04-01T10:01:19;93608.84;;;15.39;42.59
77723;BME280;67811;42.656;23.394;2023-04-01T10:04:10;93611.19;;;15.36;42.90
77723;BME280;67811;42.656;23.394;2023-04-01T10:07:07;93614.06;;;15.29;43.09
77723;BME280;67811;42.656;23.394;2023-04-01T10:10:17;93608.72;;;15.29;43.26
77723;BME280;67811;42.656;23.394;2023-04-01T10:19:54;93609.66;;;15.18;44.83
77723;BME280;67811;42.656;23.394;2023-04-01T10:22:34;93597.53;;;15.10;44.40
77723;BME280;67811;42.656;23.394;2023-04-01T10:25:36;93592.06;;;14.95;44.84
77723;BME280;67811;42.656;23.394;2023-04-01T10:28:28;93588.81;;;14.93;44.51
77723;BME280;67811;42.656;23.394;2023-04-01T10:31:19;93584.53;;;14.92;44.66
77723;BME280;67811;42.656;23.394;2023-04-01T10:34:39;93587.19;;;14.92;45.17
77723;BME280;67811;42.656;23.394;2023-04-01T10:37:32;93587.94;;;14.87;45.67
77723;BME280;67811;42.656;23.394;2023-04-01T10:43:57;93588.50;;;14.89;45.77
77723;BME280;67811;42.656;23.394;2023-04-01T10:47:19;93577.19;;;14.82;45.89
77723;BME280;67811;42.656;23.394;2023-04-01T10:53:18;93565.72;;;14.82;45.79
77723;BME280;67811;42.656;23.394;2023-04-01T10:56:33;93556.66;;;14.83;45.83
77723;BME280;67811;42.656;23.394;2023-04-01T10:59:28;93550.06;;;14.85;45.48
77723;BME280;67811;42.656;23.394;2023-04-01T11:17:39;93550.00;;;14.80;45.25
77723;BME280;67811;42.656;23.394;2023-04-01T11:20:41;93541.59;;;14.71;45.91
77723;BME280;67811;42.656;23.394;2023-04-01T11:26:30;93534.41;;;14.72;45.22
77723;BME280;67811;42.656;23.394;2023-04-01T11:29:26;93532.81;;;14.71;45.57
77723;BME280;67811;42.656;23.394;2023-04-01T11:32:10;93550.19;;;14.73;45.29
77723;BME280;67811;42.656;23.394;2023-04-01T11:35:02;93561.38;;;14.75;44.64
77723;BME280;67811;42.656;23.394;2023-04-01T11:37:40;93575.34;;;15.05;40.31
77723;BME280;67811;42.656;23.394;2023-04-01T11:40:19;93582.31;;;15.33;38.61
77723;BME280;67811;42.656;23.394;2023-04-01T11:42:57;93595.19;;;15.36;39.08
77723;BME280;67811;42.656;23.394;2023-04-01T11:45:35;93628.31;;;15.40;41.76
77723;BME280;67811;42.656;23.394;2023-04-01T11:48:36;93693.63;;;14.93;47.55
77723;BME280;67811;42.656;23.394;2023-04-01T11:51:21;93699.19;;;13.91;51.81
77723;BME280;67811;42.656;23.394;2023-04-01T11:54:04;93738.59;;;12.90;57.26
77723;BME280;67811;42.656;23.394;2023-04-01T11:56:53;93765.06;;;12.61;62.51
77723;BME280;67811;42.656;23.394;2023-04-01T12:00:01;93786.16;;;12.03;68.81
77723;BME280;67811;42.656;23.394;2023-04-01T12:02:44;93797.84;;;11.47;74.37
77723;BME280;67811;42.656;23.394;2023-04-01T12:05:31;93825.44;;;11.02;76.44
77723;BME280;67811;42.656;23.394;2023-04-01T12:08:11;93808.94;;;10.75;79.76
77723;BME280;67811;42.656;23.394;2023-04-01T12:10:50;93791.00;;;10.52;82.04
77723;BME280;67811;42.656;23.394;2023-04-01T12:13:34;93769.22;;;10.25;84.55
77723;BME280;67811;42.656;23.394;2023-04-01T12:16:34;93798.56;;;10.17;85.91
77723;BME280;67811;42.656;23.394;2023-04-01T12:19:15;93790.81;;;10.16;85.74
77723;BME280;67811;42.656;23.394;2023-04-01T12:21:58;93794.94;;;10.12;85.72
77723;BME280;67811;42.656;23.394;2023-04-01T12:24:45;93802.03;;;10.18;84.10
77723;BME280;67811;42.656;23.394;2023-04-01T12:27:31;93797.94;;;10.22;84.12
77723;BME280;67811;42.656;23.394;2023-04-01T12:30:34;93792.81;;;10.27;85.41
77723;BME280;67811;42.656;23.394;2023-04-01T12:33:35;93786.69;;;10.33;85.43
77723;BME280;67811;42.656;23.394;2023-04-01T12:36:26;93792.13;;;10.38;84.66
77723;BME280;67811;42.656;23.394;2023-04-01T12:39:28;93792.44;;;10.55;84.67
77723;BME280;67811;42.656;23.394;2023-04-01T12:42:10;93802.69;;;10.45;86.91
77723;BME280;67811;42.656;23.394;2023-04-01T12:44:54;93805.53;;;10.43;86.98
77723;BME280;67811;42.656;23.394;2023-04-01T12:47:51;93821.09;;;10.33;86.79
77723;BME280;67811;42.656;23.394;2023-04-01T12:50:35;93819.13;;;10.22;87.68
77723;BME280;67811;42.656;23.394;2023-04-01T12:53:36;93817.34;;;10.09;86.46
77723;BME280;67811;42.656;23.394;2023-04-01T12:56:14;93807.59;;;10.03;87.26
77723;BME280;67811;42.656;23.394;2023-04-01T13:02:02;93800.91;;;10.00;87.27
77723;BME280;67811;42.656;23.394;2023-04-01T13:05:00;93799.88;;;10.01;88.20
77723;BME280;67811;42.656;23.394;2023-04-01T13:07:50;93782.41;;;10.00;87.60
77723;BME280;67811;42.656;23.394;2023-04-01T13:10:48;93774.28;;;9.89;85.05
77723;BME280;67811;42.656;23.394;2023-04-01T13:13:46;93762.72;;;9.83;85.64
77723;BME280;67811;42.656;23.394;2023-04-01T13:16:21;93763.00;;;9.75;85.51
77723;BME280;67811;42.656;23.394;2023-04-01T13:18:58;93745.47;;;9.81;83.56
77723;BME280;67811;42.656;23.394;2023-04-01T13:21:39;93711.03;;;9.87;83.12
77723;BME280;67811;42.656;23.394;2023-04-01T13:24:24;93698.16;;;10.22;79.40
77723;BME280;67811;42.656;23.394;2023-04-01T13:27:02;93692.50;;;10.44;72.90
77723;BME280;67811;42.656;23.394;2023-04-01T13:29:40;93689.88;;;10.62;73.77
77723;BME280;67811;42.656;23.394;2023-04-01T13:32:27;93685.75;;;11.03;73.89
77723;BME280;67811;42.656;23.394;2023-04-01T13:35:08;93681.59;;;11.44;68.13
77723;BME280;67811;42.656;23.394;2023-04-01T13:37:54;93681.13;;;11.47;68.79
77723;BME280;67811;42.656;23.394;2023-04-01T13:40:45;93651.56;;;11.61;73.67
77723;BME280;67811;42.656;23.394;2023-04-01T13:43:23;93650.53;;;11.74;73.94
77723;BME280;67811;42.656;23.394;2023-04-01T13:46:12;93670.59;;;11.89;73.62
77723;BME280;67811;42.656;23.394;2023-04-01T13:49:16;93664.84;;;12.03;74.07
77723;BME280;67811;42.656;23.394;2023-04-01T13:55:22;93657.72;;;12.62;69.92
77723;BME280;67811;42.656;23.394;2023-04-01T13:58:16;93658.94;;;12.95;69.78
77723;BME280;67811;42.656;23.394;2023-04-01T14:00:56;93658.56;;;13.15;70.21
77723;BME280;67811;42.656;23.394;2023-04-01T14:03:41;93660.09;;;12.99;73.45
77723;BME280;67811;42.656;23.394;2023-04-01T14:06:21;93655.06;;;12.62;72.37
77723;BME280;67811;42.656;23.394;2023-04-01T14:09:24;93641.66;;;12.22;74.51
77723;BME280;67811;42.656;23.394;2023-04-01T14:12:04;93635.41;;;12.05;76.91
77723;BME280;67811;42.656;23.394;2023-04-01T14:14:47;93624.13;;;12.33;77.87
77723;BME280;67811;42.656;23.394;2023-04-01T14:17:45;93616.13;;;12.45;74.39
77723;BME280;67811;42.656;23.394;2023-04-01T14:20:26;93621.00;;;12.59;73.10
77723;BME280;67811;42.656;23.394;2023-04-01T14:23:18;93630.00;;;12.70;72.53
77723;BME280;67811;42.656;23.394;2023-04-01T14:26:08;93622.84;;;12.59;72.66
77723;BME280;67811;42.656;23.394;2023-04-01T14:28:45;93619.03;;;12.20;72.31
77723;BME280;67811;42.656;23.394;2023-04-01T14:31:43;93604.38;;;11.75;73.94
77723;BME280;67811;42.656;23.394;2023-04-01T14:34:34;93597.19;;;11.52;74.96
77723;BME280;67811;42.656;23.394;2023-04-01T14:37:23;93595.03;;;11.61;76.67
77723;BME280;67811;42.656;23.394;2023-04-01T14:40:24;93590.31;;;11.63;76.13
77723;BME280;67811;42.656;23.394;2023-04-01T14:43:16;93595.63;;;11.75;76.80
77723;BME280;67811;42.656;23.394;2023-04-01T14:46:04;93595.75;;;11.80;74.72
77723;BME280;67811;42.656;23.394;2023-04-01T14:48:48;93604.00;;;12.02;75.30
77723;BME280;67811;42.656;23.394;2023-04-01T14:51:23;93601.34;;;12.02;71.22
77723;BME280;67811;42.656;23.394;2023-04-01T14:54:13;93591.09;;;12.05;71.68
77723;BME280;67811;42.656;23.394;2023-04-01T14:56:48;93585.91;;;12.10;71.79
77723;BME280;67811;42.656;23.394;2023-04-01T14:59:27;93593.75;;;12.05;72.05
77723;BME280;67811;42.656;23.394;2023-04-01T15:02:01;93592.94;;;12.05;70.99